createdAt,value
2019-01-23T00:00:31.393Z,14.67
2019-01-23T00:03:00.021Z,15.27
2019-01-23T00:05:28.674Z,15.90
2019-01-23T00:07:57.295Z,16.83
2019-01-23T00:10:25.952Z,16.43
2019-01-23T00:12:54.574Z,14.57
2019-01-23T00:15:23.243Z,16.27
2019-01-23T00:17:51.927Z,15.07
2019-01-23T00:20:20.747Z,15.00
2019-01-23T00:22:49.366Z,15.77
2019-01-23T00:25:17.965Z,15.77
2019-01-23T00:27:46.636Z,15.57
2019-01-23T00:30:16.574Z,16.67
2019-01-23T00:32:45.267Z,16.47
2019-01-23T00:35:14.063Z,16.63
2019-01-23T00:37:42.690Z,16.13
2019-01-23T00:40:16.035Z,16.83
2019-01-23T00:42:44.801Z,16.13
2019-01-23T00:45:15.481Z,17.57
2019-01-23T00:47:44.099Z,17.83
2019-01-23T00:50:14.810Z,16.73
2019-01-23T00:52:43.498Z,16.47
2019-01-23T00:55:17.230Z,18.93
2019-01-23T00:57:45.932Z,17.40
2019-01-23T01:00:18.101Z,19.87
2019-01-23T01:02:46.827Z,19.77
2019-01-23T01:05:16.292Z,18.93
2019-01-23T01:07:45.025Z,21.70
2019-01-23T01:10:16.485Z,21.07
2019-01-23T01:12:45.220Z,18.73
2019-01-23T01:15:14.186Z,20.80
2019-01-23T01:17:43.115Z,22.60
2019-01-23T01:20:15.966Z,21.93
2019-01-23T01:22:44.623Z,22.73
2019-01-23T01:25:15.390Z,21.83
2019-01-23T01:27:44.050Z,23.17
2019-01-23T01:30:15.610Z,24.67
2019-01-23T01:32:44.205Z,23.53
2019-01-23T01:35:12.973Z,23.30
2019-01-23T01:37:41.567Z,25.60
2019-01-23T01:40:12.840Z,26.27
2019-01-23T01:42:41.469Z,24.27
2019-01-23T01:45:11.687Z,26.00
2019-01-23T01:47:40.283Z,24.90
2019-01-23T01:50:17.350Z,26.83
2019-01-23T01:52:46.494Z,28.17
2019-01-23T01:55:15.266Z,26.20
2019-01-23T01:57:44.094Z,28.17
2019-01-23T02:00:21.083Z,26.87
2019-01-23T02:02:49.748Z,28.20
2019-01-23T02:05:18.910Z,28.23
2019-01-23T02:07:47.675Z,28.27
2019-01-23T02:10:18.842Z,28.57
2019-01-23T02:12:47.874Z,27.83
2019-01-23T02:15:17.144Z,29.03
2019-01-23T02:17:45.886Z,22.30
2019-01-23T02:20:19.605Z,29.43
2019-01-23T02:22:48.262Z,29.03
2019-01-23T02:25:17.402Z,31.30
2019-01-23T02:27:46.803Z,27.90
2019-01-23T02:30:20.674Z,28.77
2019-01-23T02:32:49.339Z,29.53
2019-01-23T02:35:18.228Z,21.77
2019-01-23T02:37:47.092Z,29.80
2019-01-23T02:40:17.956Z,30.77
2019-01-23T02:42:46.704Z,31.07
2019-01-23T02:45:16.061Z,27.27
2019-01-23T02:47:44.833Z,28.70
2019-01-23T02:50:14.605Z,29.90
2019-01-23T02:52:43.209Z,29.87
2019-01-23T02:55:12.568Z,28.90
2019-01-23T02:57:41.505Z,32.33
2019-01-23T03:00:15.453Z,30.90
2019-01-23T03:02:44.217Z,31.53
2019-01-23T03:05:15.486Z,32.10
2019-01-23T03:07:44.082Z,30.47
2019-01-23T03:10:15.940Z,28.07
2019-01-23T03:12:44.603Z,30.67
2019-01-23T03:15:15.830Z,30.37
2019-01-23T03:17:44.601Z,31.33
2019-01-23T03:20:15.436Z,27.77
2019-01-23T03:22:44.370Z,29.87
2019-01-23T03:25:14.823Z,29.47
2019-01-23T03:27:43.693Z,28.97
2019-01-23T03:30:14.915Z,29.60
2019-01-23T03:32:43.566Z,28.70
2019-01-23T03:35:12.474Z,29.83
2019-01-23T03:37:41.086Z,30.40
2019-01-23T03:40:12.894Z,31.13
2019-01-23T03:42:41.526Z,29.27
2019-01-23T03:45:11.662Z,31.33
2019-01-23T03:47:40.614Z,29.20
2019-01-23T03:50:14.398Z,30.50
2019-01-23T03:52:43.194Z,29.33
2019-01-23T03:55:13.628Z,30.07
2019-01-23T03:57:42.394Z,25.67
2019-01-23T04:00:13.525Z,25.53
2019-01-23T04:02:42.488Z,27.63
2019-01-23T04:05:12.047Z,29.07
2019-01-23T04:07:40.887Z,25.67
2019-01-23T04:10:15.090Z,26.00
2019-01-23T04:12:44.227Z,26.07
2019-01-23T04:15:15.196Z,27.57
2019-01-23T04:17:43.932Z,28.20
2019-01-23T04:20:14.906Z,28.40
2019-01-23T04:22:44.044Z,27.07
2019-01-23T04:25:13.158Z,28.77
2019-01-23T04:27:41.819Z,27.07
2019-01-23T04:30:21.930Z,29.20
2019-01-23T04:32:50.767Z,27.30
2019-01-23T04:35:19.343Z,22.80
2019-01-23T04:37:48.102Z,27.97
2019-01-23T04:40:16.837Z,27.33
2019-01-23T04:42:45.516Z,26.93
2019-01-23T04:45:16.014Z,28.17
2019-01-23T04:47:44.875Z,28.43
2019-01-23T04:50:15.786Z,26.43
2019-01-23T04:52:46.072Z,29.03
2019-01-23T04:55:14.803Z,28.33
2019-01-23T04:57:43.372Z,23.20
2019-01-23T05:00:15.056Z,28.97
2019-01-23T05:02:43.626Z,28.20
2019-01-23T05:05:12.636Z,28.27
2019-01-23T05:07:41.206Z,27.60
2019-01-23T05:10:09.871Z,26.33
2019-01-23T05:12:38.498Z,28.03
2019-01-23T05:15:08.946Z,27.63
2019-01-23T05:17:37.526Z,27.07
2019-01-23T05:20:09.302Z,27.73
2019-01-23T05:22:37.878Z,27.03
2019-01-23T05:25:07.216Z,25.47
2019-01-23T05:27:36.057Z,27.33
2019-01-23T05:30:07.735Z,28.40
2019-01-23T05:32:36.416Z,27.37
2019-01-23T05:35:05.927Z,28.40
2019-01-23T05:37:34.506Z,28.37
2019-01-23T05:40:04.698Z,26.87
2019-01-23T05:42:33.223Z,29.00
2019-01-23T05:45:01.808Z,27.90
2019-01-23T05:47:30.418Z,26.90
2019-01-23T05:49:58.986Z,25.87
2019-01-23T05:52:27.656Z,28.83
2019-01-23T05:54:56.226Z,28.60
2019-01-23T05:57:24.828Z,28.27
2019-01-23T05:59:53.399Z,27.90
2019-01-23T06:02:22.006Z,26.77
2019-01-23T06:04:50.584Z,27.33
2019-01-23T06:07:19.186Z,25.83
2019-01-23T06:09:47.755Z,26.87
2019-01-23T06:12:16.350Z,27.17
2019-01-23T06:14:44.920Z,26.90
2019-01-23T06:17:13.583Z,22.23
2019-01-23T06:19:42.139Z,25.10
2019-01-23T06:22:10.742Z,27.40
2019-01-23T06:24:39.334Z,27.30
2019-01-23T06:27:07.922Z,27.93
2019-01-23T06:29:36.499Z,27.03
2019-01-23T06:32:05.143Z,28.03
2019-01-23T06:34:33.734Z,27.73
2019-01-23T06:37:02.335Z,26.80
2019-01-23T06:39:30.942Z,27.47
2019-01-23T06:41:59.682Z,26.90
2019-01-23T06:44:28.319Z,27.23
2019-01-23T06:46:56.878Z,28.17
2019-01-23T06:49:25.479Z,26.83
2019-01-23T06:51:54.048Z,27.20
2019-01-23T06:54:22.651Z,26.20
2019-01-23T06:56:51.218Z,27.10
2019-01-23T06:59:19.815Z,27.40
2019-01-23T07:01:48.381Z,27.77
2019-01-23T07:04:16.992Z,27.23
2019-01-23T07:06:45.558Z,28.53
2019-01-23T07:09:14.222Z,28.20
2019-01-23T07:11:42.794Z,28.87
2019-01-23T07:14:11.397Z,28.17
2019-01-23T07:16:39.963Z,27.57
2019-01-23T07:19:08.573Z,28.17
2019-01-23T07:21:37.146Z,27.10
2019-01-23T07:24:05.750Z,30.17
2019-01-23T07:26:34.357Z,27.57
2019-01-23T07:29:02.942Z,27.87
2019-01-23T07:31:31.514Z,27.57
2019-01-23T07:34:00.021Z,30.33
2019-01-23T07:36:28.701Z,29.53
2019-01-23T07:38:57.271Z,29.03
2019-01-23T07:41:25.875Z,30.30
2019-01-23T07:43:54.454Z,29.17
2019-01-23T07:46:23.070Z,29.23
2019-01-23T07:48:51.647Z,29.63
2019-01-23T07:51:20.255Z,28.33
2019-01-23T07:53:48.895Z,27.97
2019-01-23T07:56:17.506Z,30.80
2019-01-23T07:58:46.067Z,30.13
2019-01-23T08:01:14.742Z,29.77
2019-01-23T08:03:43.369Z,29.27
2019-01-23T08:06:11.974Z,27.77
2019-01-23T08:08:40.551Z,28.60
2019-01-23T08:11:09.221Z,28.10
2019-01-23T08:13:37.814Z,26.30
2019-01-23T08:16:06.511Z,27.30
2019-01-23T08:18:35.076Z,26.73
2019-01-23T08:21:03.819Z,28.30
2019-01-23T08:23:32.390Z,27.67
2019-01-23T08:26:00.915Z,28.10
2019-01-23T08:28:29.495Z,28.77
2019-01-23T08:30:58.164Z,28.83
2019-01-23T08:33:26.731Z,27.03
2019-01-23T08:35:55.348Z,27.60
2019-01-23T08:38:23.955Z,28.27
2019-01-23T08:40:52.574Z,28.10
2019-01-23T08:43:21.137Z,27.33
2019-01-23T08:45:49.702Z,28.23
2019-01-23T08:48:18.314Z,27.23
2019-01-23T08:50:46.954Z,27.73
2019-01-23T08:53:15.614Z,27.70
2019-01-23T08:55:44.178Z,27.70
2019-01-23T08:58:12.778Z,27.73
2019-01-23T09:00:45.822Z,28.00
2019-01-23T09:03:11.803Z,27.57
2019-01-23T09:05:40.442Z,29.10
2019-01-23T09:08:09.278Z,27.07
2019-01-23T09:10:38.034Z,27.40
2019-01-23T09:13:06.687Z,28.07
2019-01-23T09:15:35.270Z,27.10
2019-01-23T09:18:04.341Z,27.50
2019-01-23T09:20:32.895Z,28.10
2019-01-23T09:23:01.495Z,28.80
2019-01-23T09:25:30.131Z,27.20
2019-01-23T09:27:58.843Z,27.07
2019-01-23T09:30:30.402Z,28.53
2019-01-23T09:33:13.629Z,28.27
2019-01-23T09:35:51.306Z,27.83
2019-01-23T09:38:56.372Z,28.83
2019-01-23T09:41:53.591Z,29.70
2019-01-23T09:44:27.855Z,28.23
2019-01-23T09:47:20.910Z,28.70
2019-01-23T09:49:52.526Z,30.00
2019-01-23T09:52:27.165Z,29.87
2019-01-23T09:54:55.767Z,30.00
2019-01-23T09:57:24.390Z,30.23
2019-01-23T09:59:52.879Z,30.83
2019-01-23T10:02:21.470Z,29.73
2019-01-23T10:04:50.035Z,31.43
2019-01-23T10:07:18.624Z,32.53
2019-01-23T10:09:47.182Z,31.20
2019-01-23T10:12:17.524Z,33.60
2019-01-23T10:14:46.047Z,32.53
2019-01-23T10:17:14.645Z,32.53
2019-01-23T10:19:43.228Z,33.43
2019-01-23T10:22:11.946Z,33.10
2019-01-23T10:24:40.514Z,34.20
2019-01-23T10:27:09.338Z,33.70
2019-01-23T10:29:37.899Z,33.40
2019-01-23T10:32:06.493Z,33.87
2019-01-23T10:34:35.127Z,33.67
2019-01-23T10:37:03.916Z,33.93
2019-01-23T10:39:32.466Z,33.10
2019-01-23T10:42:01.232Z,34.03
2019-01-23T10:44:29.786Z,33.50
2019-01-23T10:46:58.391Z,34.83
2019-01-23T10:49:27.099Z,33.67
2019-01-23T10:51:55.736Z,33.67
2019-01-23T10:54:24.331Z,34.37
2019-01-23T10:56:52.891Z,35.13
2019-01-23T10:59:21.487Z,34.57
2019-01-23T11:01:50.050Z,32.43
2019-01-23T11:04:18.725Z,34.17
2019-01-23T11:06:47.363Z,32.77
2019-01-23T11:09:15.976Z,33.53
2019-01-23T11:11:44.502Z,33.80
2019-01-23T11:14:13.200Z,33.40
2019-01-23T11:16:41.831Z,33.83
2019-01-23T11:19:10.421Z,34.37
2019-01-23T11:21:38.983Z,32.97
2019-01-23T11:24:07.574Z,32.70
2019-01-23T11:26:36.313Z,30.73
2019-01-23T11:29:05.190Z,31.47
2019-01-23T11:31:33.822Z,30.23
2019-01-23T11:34:02.496Z,28.83
2019-01-23T11:36:31.071Z,29.87
2019-01-23T11:38:59.671Z,29.00
2019-01-23T11:41:28.259Z,29.47
2019-01-23T11:43:56.914Z,28.60
2019-01-23T11:46:25.485Z,28.93
2019-01-23T11:48:54.079Z,27.67
2019-01-23T11:51:22.635Z,27.43
2019-01-23T11:53:51.230Z,27.77
2019-01-23T11:56:19.875Z,26.80
2019-01-23T11:58:48.396Z,26.37
2019-01-23T12:01:16.958Z,25.53
2019-01-23T12:03:45.519Z,25.23
2019-01-23T12:06:14.254Z,25.23
2019-01-23T12:08:42.887Z,24.27
2019-01-23T12:11:11.463Z,25.63
2019-01-23T12:13:40.123Z,23.87
2019-01-23T12:16:08.687Z,21.60
2019-01-23T12:18:37.366Z,20.07
2019-01-23T12:21:05.937Z,20.93
2019-01-23T12:23:34.670Z,21.63
2019-01-23T12:26:03.303Z,21.77
2019-01-23T12:28:31.906Z,20.33
2019-01-23T12:31:00.541Z,19.73
2019-01-23T12:33:29.109Z,19.63
2019-01-23T12:35:57.770Z,18.57
2019-01-23T12:38:26.339Z,18.43
2019-01-23T12:40:54.943Z,17.63
2019-01-23T12:43:23.514Z,19.10
2019-01-23T12:45:52.120Z,23.67
2019-01-23T12:48:20.679Z,25.47
2019-01-23T12:50:49.271Z,28.50
2019-01-23T12:53:17.830Z,33.57
2019-01-23T12:55:46.423Z,40.30
2019-01-23T12:58:15.005Z,44.37
2019-01-23T13:00:43.604Z,53.13
2019-01-23T13:03:12.511Z,65.97
2019-01-23T13:05:41.184Z,68.10
2019-01-23T13:08:09.755Z,64.47
2019-01-23T13:10:38.423Z,69.87
2019-01-23T13:13:07.132Z,69.63
2019-01-23T13:15:35.891Z,70.73
2019-01-23T13:18:04.697Z,67.17
2019-01-23T13:20:33.294Z,70.30
2019-01-23T13:23:01.935Z,68.30
2019-01-23T13:25:30.598Z,67.50
2019-01-23T13:28:00.967Z,68.47
2019-01-23T13:30:29.541Z,68.27
2019-01-23T13:32:58.152Z,65.23
2019-01-23T13:35:49.020Z,66.73
2019-01-23T13:38:17.663Z,68.00
2019-01-23T13:40:46.349Z,64.77
2019-01-23T13:43:14.983Z,66.60
2019-01-23T13:45:43.568Z,66.60
2019-01-23T13:48:12.713Z,66.90
2019-01-23T13:50:41.361Z,71.63
2019-01-23T13:53:10.025Z,74.47
2019-01-23T13:55:38.669Z,75.83
2019-01-23T13:58:07.671Z,77.00
2019-01-23T14:00:42.499Z,78.57
2019-01-23T14:03:11.475Z,79.53
2019-01-23T14:05:40.110Z,81.43
2019-01-23T14:08:09.070Z,78.93
2019-01-23T14:10:37.780Z,78.67
2019-01-23T14:13:06.622Z,81.37
2019-01-23T14:15:37.131Z,80.80
2019-01-23T14:18:06.477Z,78.83
2019-01-23T14:20:35.281Z,78.17
2019-01-23T14:23:04.115Z,75.60
2019-01-23T14:25:32.860Z,74.93
2019-01-23T14:28:01.539Z,76.97
2019-01-23T14:30:32.816Z,72.30
2019-01-23T14:33:01.478Z,73.27
2019-01-23T14:35:30.796Z,72.53
2019-01-23T14:38:00.815Z,71.43
2019-01-23T14:40:29.679Z,67.00
2019-01-23T14:42:58.339Z,64.93
2019-01-23T14:45:27.043Z,65.17
2019-01-23T14:47:55.807Z,61.77
2019-01-23T14:50:25.089Z,58.97
2019-01-23T14:52:54.209Z,56.33
2019-01-23T14:55:22.971Z,56.30
2019-01-23T14:57:51.811Z,55.10
2019-01-23T15:00:26.459Z,52.67
2019-01-23T15:02:55.087Z,50.70
2019-01-23T15:05:23.683Z,51.17
2019-01-23T15:07:52.269Z,49.27
2019-01-23T15:10:26.753Z,49.13
2019-01-23T15:12:55.911Z,48.97
2019-01-23T15:15:24.669Z,47.27
2019-01-23T15:17:53.978Z,46.23
2019-01-23T15:20:25.025Z,45.03
2019-01-23T15:22:53.658Z,45.83
2019-01-23T15:25:22.597Z,43.73
2019-01-23T15:27:51.167Z,46.17
2019-01-23T15:30:21.903Z,44.17
2019-01-23T15:32:52.203Z,43.57
2019-01-23T15:35:21.355Z,44.43
2019-01-23T15:37:50.012Z,44.33
2019-01-23T15:40:21.154Z,45.03
2019-01-23T15:42:49.797Z,44.20
2019-01-23T15:45:18.571Z,45.70
2019-01-23T15:47:47.287Z,45.47
2019-01-23T15:50:21.599Z,45.40
2019-01-23T15:52:50.319Z,43.40
2019-01-23T15:55:21.183Z,42.80
2019-01-23T15:57:49.824Z,40.57
2019-01-23T16:00:23.576Z,40.33
2019-01-23T16:02:52.331Z,40.07
2019-01-23T16:05:20.967Z,40.43
2019-01-23T16:07:49.575Z,38.03
2019-01-23T16:10:23.439Z,40.57
2019-01-23T16:12:52.287Z,39.93
2019-01-23T16:15:23.403Z,41.93
2019-01-23T16:17:52.188Z,39.17
2019-01-23T16:20:20.899Z,40.03
2019-01-23T16:22:49.578Z,38.40
2019-01-23T16:25:18.291Z,40.73
2019-01-23T16:27:46.885Z,37.60
2019-01-23T16:30:18.897Z,38.33
2019-01-23T16:32:47.571Z,38.37
2019-01-23T16:35:16.323Z,37.60
2019-01-23T16:37:45.355Z,38.43
2019-01-23T16:40:14.195Z,38.53
2019-01-23T16:42:42.938Z,36.80
2019-01-23T16:45:17.358Z,36.13
2019-01-23T16:47:46.135Z,36.40
2019-01-23T16:50:17.954Z,36.13
2019-01-23T16:52:46.664Z,34.53
2019-01-23T16:55:15.811Z,37.53
2019-01-23T16:57:45.624Z,38.30
2019-01-23T17:00:19.347Z,36.03
2019-01-23T17:02:48.011Z,35.47
2019-01-23T17:05:19.955Z,36.60
2019-01-23T17:07:48.598Z,34.60
2019-01-23T17:10:19.735Z,36.63
2019-01-23T17:12:48.313Z,36.80
2019-01-23T17:15:17.050Z,34.57
2019-01-23T17:17:45.891Z,35.67
2019-01-23T17:20:20.239Z,35.20
2019-01-23T17:22:48.884Z,32.07
2019-01-23T17:25:17.637Z,31.90
2019-01-23T17:27:46.581Z,32.07
2019-01-23T17:30:17.421Z,30.30
2019-01-23T17:32:46.001Z,31.23
2019-01-23T17:35:17.707Z,30.83
2019-01-23T17:37:46.386Z,28.47
2019-01-23T17:40:20.311Z,30.07
2019-01-23T17:42:48.987Z,28.80
2019-01-23T17:45:26.527Z,27.23
2019-01-23T17:47:55.216Z,28.13
2019-01-23T17:50:24.433Z,28.20
2019-01-23T17:52:53.407Z,27.03
2019-01-23T17:55:24.464Z,27.67
2019-01-23T17:57:53.324Z,27.87
2019-01-23T18:03:16.893Z,29.47
2019-01-23T18:05:51.075Z,28.47
2019-01-23T18:08:15.702Z,26.60
2019-01-23T18:10:44.275Z,26.40
2019-01-23T18:13:12.877Z,26.63
2019-01-23T18:15:42.187Z,27.23
2019-01-23T18:18:12.528Z,25.97
2019-01-23T18:20:41.188Z,28.77
2019-01-23T18:23:09.834Z,26.80
2019-01-23T18:25:38.587Z,27.20
2019-01-23T18:28:07.302Z,27.60
2019-01-23T18:30:50.861Z,28.57
2019-01-23T18:33:27.626Z,25.93
2019-01-23T18:35:59.638Z,28.03
2019-01-23T18:38:31.384Z,29.07
2019-01-23T18:41:11.799Z,27.40
2019-01-23T18:44:17.764Z,24.90
2019-01-23T18:47:01.411Z,24.93
2019-01-23T18:49:38.984Z,25.27
2019-01-23T18:52:15.164Z,25.97
2019-01-23T18:54:44.611Z,25.33
2019-01-23T18:57:22.227Z,24.27
2019-01-23T18:59:50.902Z,24.30
2019-01-23T19:02:19.595Z,25.60
2019-01-23T19:04:48.181Z,24.13
2019-01-23T19:07:16.834Z,25.37
2019-01-23T19:09:45.417Z,25.70
2019-01-23T19:12:14.170Z,25.43
2019-01-23T19:14:42.983Z,24.80
2019-01-23T19:17:11.740Z,24.50
2019-01-23T19:19:40.371Z,26.00
2019-01-23T19:22:08.992Z,26.33
2019-01-23T19:24:37.564Z,25.70
2019-01-23T19:27:06.386Z,26.53
2019-01-23T19:29:34.982Z,24.53
2019-01-23T19:32:04.401Z,26.03
2019-01-23T19:34:33.006Z,25.33
2019-01-23T19:37:01.582Z,25.27
2019-01-23T19:39:30.180Z,25.50
2019-01-23T19:41:58.888Z,24.87
2019-01-23T19:44:27.480Z,24.63
2019-01-23T19:46:56.129Z,26.00
2019-01-23T19:49:24.787Z,25.67
2019-01-23T19:51:53.516Z,25.73
2019-01-23T19:54:22.123Z,26.00
2019-01-23T19:56:50.683Z,25.47
2019-01-23T19:59:19.289Z,27.07
2019-01-23T20:01:47.999Z,25.53
2019-01-23T20:04:16.613Z,26.13
2019-01-23T20:06:45.185Z,26.00
2019-01-23T20:09:13.971Z,26.20
2019-01-23T20:11:42.624Z,26.27
2019-01-23T20:14:11.337Z,26.67
2019-01-23T20:16:39.872Z,28.13
2019-01-23T20:19:09.826Z,26.70
2019-01-23T20:21:38.402Z,25.43
2019-01-23T20:24:07.160Z,25.97
2019-01-23T20:26:35.761Z,26.67
2019-01-23T20:29:04.894Z,25.47
2019-01-23T20:31:33.542Z,25.90
2019-01-23T20:34:02.119Z,25.43
2019-01-23T20:36:30.727Z,25.37
2019-01-23T20:38:59.304Z,25.97
2019-01-23T20:41:27.924Z,25.17
2019-01-23T20:43:56.508Z,25.70
2019-01-23T20:46:25.192Z,25.30
2019-01-23T20:48:53.772Z,24.83
2019-01-23T20:51:22.446Z,25.73
2019-01-23T20:53:51.024Z,25.27
2019-01-23T20:56:19.643Z,25.83
2019-01-23T20:58:48.211Z,25.73
2019-01-23T21:01:16.818Z,25.17
2019-01-23T21:03:45.468Z,26.00
2019-01-23T21:06:14.288Z,25.87
2019-01-23T21:08:42.865Z,25.87
2019-01-23T21:11:11.717Z,26.00
2019-01-23T21:13:40.312Z,26.00
2019-01-23T21:16:09.160Z,25.37
2019-01-23T21:18:37.726Z,25.63
2019-01-23T21:21:06.306Z,25.33
2019-01-23T21:23:34.986Z,25.87
2019-01-23T21:26:03.573Z,25.67
2019-01-23T21:28:32.178Z,25.17
2019-01-23T21:31:00.810Z,24.40
2019-01-23T21:33:29.424Z,24.57
2019-01-23T21:35:58.008Z,23.77
2019-01-23T21:38:26.582Z,24.23
2019-01-23T21:40:55.191Z,25.67
2019-01-23T21:43:23.841Z,25.10
2019-01-23T21:45:52.550Z,24.77
2019-01-23T21:48:21.064Z,25.13
2019-01-23T21:50:49.842Z,25.20
2019-01-23T21:53:18.412Z,23.23
2019-01-23T21:55:47.085Z,23.37
2019-01-23T21:58:15.664Z,24.37
2019-01-23T22:00:44.344Z,24.43
2019-01-23T22:03:13.060Z,24.83
2019-01-23T22:05:41.843Z,23.17
2019-01-23T22:08:10.682Z,23.13
2019-01-23T22:10:39.260Z,24.20
2019-01-23T22:13:07.934Z,24.40
2019-01-23T22:15:36.574Z,23.43
2019-01-23T22:18:06.793Z,23.43
2019-01-23T22:20:35.364Z,24.70
2019-01-23T22:23:04.207Z,23.70
2019-01-23T22:25:32.792Z,24.23
2019-01-23T22:28:01.465Z,23.13
2019-01-23T22:30:34.280Z,23.87
2019-01-23T22:33:02.946Z,23.60
2019-01-23T22:35:31.521Z,23.77
2019-01-23T22:38:00.121Z,21.77
2019-01-23T22:40:28.759Z,22.67
2019-01-23T22:42:57.360Z,23.57
2019-01-23T22:45:26.008Z,24.53
2019-01-23T22:47:55.116Z,23.00
2019-01-23T22:50:26.191Z,21.80
2019-01-23T22:52:54.938Z,22.57
2019-01-23T22:55:23.592Z,23.83
2019-01-23T22:57:52.253Z,23.77
2019-01-23T23:00:55.018Z,23.70
2019-01-23T23:03:23.625Z,23.23
2019-01-23T23:05:52.334Z,22.77
2019-01-23T23:08:21.006Z,23.50
2019-01-23T23:10:49.750Z,23.93
2019-01-23T23:13:18.350Z,24.77
2019-01-23T23:15:47.791Z,24.83
2019-01-23T23:18:16.458Z,24.67
2019-01-23T23:20:45.034Z,24.60
2019-01-23T23:23:13.640Z,24.87
2019-01-23T23:25:42.214Z,24.70
2019-01-23T23:28:11.067Z,26.20
2019-01-23T23:30:39.638Z,25.10
2019-01-23T23:33:08.240Z,24.17
2019-01-23T23:35:36.812Z,25.83
2019-01-23T23:38:05.581Z,24.13
2019-01-23T23:40:34.226Z,26.70
2019-01-23T23:43:02.768Z,28.00
2019-01-23T23:45:31.418Z,27.10
2019-01-23T23:47:59.948Z,24.77
2019-01-23T23:50:28.585Z,26.07
2019-01-23T23:52:57.154Z,25.47
2019-01-23T23:55:25.684Z,24.27
2019-01-23T23:57:54.248Z,26.17
